sensor_id;sensor_type;location;lat;lon;timestamp;pressure;altitude;pressure_sealevel;temperature;humidity
20105;BME280;10212;42.714;23.310;2023-02-28T00:04:26;95642.31;;;5.03;100.00
20105;BME280;10212;42.714;23.310;2023-02-28T00:14:26;95655.16;;;4.86;100.00
20105;BME280;10212;42.714;23.310;2023-02-28T00:24:26;95674.66;;;4.80;100.00
20105;BME280;10212;42.714;23.310;2023-02-28T00:34:27;95676.56;;;4.52;100.00
20105;BME280;10212;42.714;23.310;2023-02-28T00:44:28;95680.84;;;4.25;100.00
20105;BME280;10212;42.714;23.310;2023-02-28T00:54:29;95659.41;;;4.24;100.00
20105;BME280;10212;42.714;23.310;2023-02-28T01:04:30;95665.44;;;4.15;100.00
20105;BME280;10212;42.714;23.310;2023-02-28T01:14:30;95666.28;;;4.15;100.00
20105;BME280;10212;42.714;23.310;2023-02-28T01:24:31;95661.63;;;4.19;100.00
20105;BME280;10212;42.714;23.310;2023-02-28T01:34:31;95655.78;;;3.98;100.00
20105;BME280;10212;42.714;23.310;2023-02-28T01:54:56;95656.84;;;3.59;100.00
20105;BME280;10212;42.714;23.310;2023-02-28T02:05:07;95674.00;;;3.50;100.00
20105;BME280;10212;42.714;23.310;2023-02-28T02:15:24;95665.88;;;3.73;100.00
20105;BME280;10212;42.714;23.310;2023-02-28T02:25:45;95656.13;;;3.67;100.00
20105;BME280;10212;42.714;23.310;2023-02-28T02:36:16;95654.50;;;3.48;100.00
20105;BME280;10212;42.714;23.310;2023-02-28T02:46:42;95673.00;;;3.61;100.00
20105;BME280;10212;42.714;23.310;2023-02-28T02:56:46;95671.84;;;3.74;100.00
20105;BME280;10212;42.714;23.310;2023-02-28T03:06:50;95677.72;;;3.66;100.00
20105;BME280;10212;42.714;23.310;2023-02-28T03:27:24;95700.56;;;4.07;100.00
20105;BME280;10212;42.714;23.310;2023-02-28T03:37:28;95717.44;;;4.20;100.00
20105;BME280;10212;42.714;23.310;2023-02-28T03:47:37;95715.38;;;4.24;100.00
20105;BME280;10212;42.714;23.310;2023-02-28T03:58:22;95730.66;;;4.17;100.00
20105;BME280;10212;42.714;23.310;2023-02-28T04:08:21;95730.06;;;4.23;100.00
20105;BME280;10212;42.714;23.310;2023-02-28T04:18:22;95726.75;;;4.31;100.00
20105;BME280;10212;42.714;23.310;2023-02-28T04:28:22;95719.88;;;4.21;100.00
20105;BME280;10212;42.714;23.310;2023-02-28T04:38:23;95735.53;;;4.20;100.00
20105;BME280;10212;42.714;23.310;2023-02-28T04:48:24;95735.16;;;4.15;100.00
20105;BME280;10212;42.714;23.310;2023-02-28T04:58:25;95766.50;;;4.20;100.00
20105;BME280;10212;42.714;23.310;2023-02-28T05:08:25;95746.59;;;4.30;100.00
20105;BME280;10212;42.714;23.310;2023-02-28T05:18:26;95747.78;;;4.36;100.00
20105;BME280;10212;42.714;23.310;2023-02-28T05:28:26;95778.75;;;4.36;100.00
20105;BME280;10212;42.714;23.310;2023-02-28T05:38:27;95785.84;;;4.52;100.00
20105;BME280;10212;42.714;23.310;2023-02-28T05:48:27;95785.78;;;4.62;100.00
20105;BME280;10212;42.714;23.310;2023-02-28T05:58:28;95794.63;;;4.78;100.00
20105;BME280;10212;42.714;23.310;2023-02-28T06:08:30;95799.38;;;4.82;100.00
20105;BME280;10212;42.714;23.310;2023-02-28T06:18:31;95788.09;;;4.92;100.00
20105;BME280;10212;42.714;23.310;2023-02-28T06:28:31;95791.19;;;5.14;100.00
20105;BME280;10212;42.714;23.310;2023-02-28T06:38:32;95808.63;;;5.12;100.00
20105;BME280;10212;42.714;23.310;2023-02-28T06:48:33;95819.13;;;4.92;100.00
20105;BME280;10212;42.714;23.310;2023-02-28T06:58:34;95815.28;;;5.41;100.00
20105;BME280;10212;42.714;23.310;2023-02-28T07:08:35;95810.50;;;5.54;100.00
20105;BME280;10212;42.714;23.310;2023-02-28T07:18:37;95816.78;;;5.78;100.00
20105;BME280;10212;42.714;23.310;2023-02-28T07:28:37;95809.69;;;5.54;100.00
20105;BME280;10212;42.714;23.310;2023-02-28T07:38:38;95811.69;;;5.95;100.00
20105;BME280;10212;42.714;23.310;2023-02-28T07:48:38;95823.75;;;6.13;100.00
20105;BME280;10212;42.714;23.310;2023-02-28T07:58:39;95808.50;;;6.70;100.00
20105;BME280;10212;42.714;23.310;2023-02-28T08:08:39;95801.84;;;7.26;100.00
20105;BME280;10212;42.714;23.310;2023-02-28T08:18:40;95810.31;;;7.84;98.38
20105;BME280;10212;42.714;23.310;2023-02-28T08:28:40;95814.44;;;7.70;98.01
20105;BME280;10212;42.714;23.310;2023-02-28T08:38:41;95817.16;;;8.17;97.68
20105;BME280;10212;42.714;23.310;2023-02-28T08:48:42;95807.81;;;8.40;96.28
20105;BME280;10212;42.714;23.310;2023-02-28T08:58:43;95814.28;;;8.44;94.91
20105;BME280;10212;42.714;23.310;2023-02-28T09:08:44;95811.97;;;8.49;96.26
20105;BME280;10212;42.714;23.310;2023-02-28T09:18:44;95800.88;;;7.92;98.01
20105;BME280;10212;42.714;23.310;2023-02-28T09:28:45;95807.91;;;8.23;98.08
20105;BME280;10212;42.714;23.310;2023-02-28T09:38:46;95799.19;;;8.39;97.12
20105;BME280;10212;42.714;23.310;2023-02-28T09:48:48;95789.63;;;8.72;97.28
20105;BME280;10212;42.714;23.310;2023-02-28T09:58:53;95774.78;;;9.64;93.67
20105;BME280;10212;42.714;23.310;2023-02-28T10:09:21;95772.63;;;10.51;88.89
20105;BME280;10212;42.714;23.310;2023-02-28T10:29:44;95738.22;;;11.48;81.71
20105;BME280;10212;42.714;23.310;2023-02-28T10:39:46;95734.75;;;11.76;79.81
20105;BME280;10212;42.714;23.310;2023-02-28T10:49:48;95712.19;;;11.62;79.73
20105;BME280;10212;42.714;23.310;2023-02-28T11:00:08;95694.59;;;11.84;79.17
20105;BME280;10212;42.714;23.310;2023-02-28T11:10:19;95681.84;;;11.18;82.77
20105;BME280;10212;42.714;23.310;2023-02-28T11:20:23;95678.78;;;11.15;81.29
20105;BME280;10212;42.714;23.310;2023-02-28T11:30:40;95673.94;;;11.05;80.99
20105;BME280;10212;42.714;23.310;2023-02-28T11:51:11;95662.69;;;11.46;80.42
20105;BME280;10212;42.714;23.310;2023-02-28T12:32:21;95647.75;;;11.82;75.07
20105;BME280;10212;42.714;23.310;2023-02-28T12:42:29;95630.91;;;11.92;74.27
20105;BME280;10212;42.714;23.310;2023-02-28T13:12:47;95634.94;;;11.94;74.27
20105;BME280;10212;42.714;23.310;2023-02-28T13:22:49;95621.84;;;11.88;73.53
20105;BME280;10212;42.714;23.310;2023-02-28T13:43:19;95625.06;;;11.83;74.71
20105;BME280;10212;42.714;23.310;2023-02-28T13:53:37;95601.16;;;11.93;73.79
20105;BME280;10212;42.714;23.310;2023-02-28T14:03:55;95608.50;;;11.55;74.58
20105;BME280;10212;42.714;23.310;2023-02-28T14:13:59;95609.69;;;11.53;74.65
20105;BME280;10212;42.714;23.310;2023-02-28T14:34:58;95626.25;;;10.38;79.60
20105;BME280;10212;42.714;23.310;2023-02-28T14:45:03;95615.19;;;10.08;81.51
20105;BME280;10212;42.714;23.310;2023-02-28T14:55:14;95621.19;;;10.08;82.55
20105;BME280;10212;42.714;23.310;2023-02-28T15:15:17;95615.75;;;9.81;84.81
20105;BME280;10212;42.714;23.310;2023-02-28T15:25:20;95613.66;;;9.39;88.00
20105;BME280;10212;42.714;23.310;2023-02-28T15:45:32;95643.47;;;8.61;92.70
20105;BME280;10212;42.714;23.310;2023-02-28T15:55:37;95647.16;;;8.43;93.29
20105;BME280;10212;42.714;23.310;2023-02-28T16:05:38;95659.41;;;8.11;94.88
20105;BME280;10212;42.714;23.310;2023-02-28T16:15:42;95679.34;;;7.87;96.76
20105;BME280;10212;42.714;23.310;2023-02-28T16:25:43;95695.34;;;7.67;96.32
20105;BME280;10212;42.714;23.310;2023-02-28T16:35:46;95715.53;;;7.57;95.66
20105;BME280;10212;42.714;23.310;2023-02-28T16:45:46;95728.88;;;7.29;96.73
20105;BME280;10212;42.714;23.310;2023-02-28T16:55:47;95738.97;;;7.15;97.57
20105;BME280;10212;42.714;23.310;2023-02-28T17:05:47;95745.94;;;7.06;97.52
20105;BME280;10212;42.714;23.310;2023-02-28T17:15:48;95735.28;;;6.93;97.63
20105;BME280;10212;42.714;23.310;2023-02-28T17:25:48;95745.34;;;6.79;98.53
20105;BME280;10212;42.714;23.310;2023-02-28T17:35:55;95734.97;;;6.62;99.00
20105;BME280;10212;42.714;23.310;2023-02-28T17:45:55;95728.47;;;6.50;100.00
20105;BME280;10212;42.714;23.310;2023-02-28T17:55:56;95725.88;;;6.42;100.00
20105;BME280;10212;42.714;23.310;2023-02-28T18:05:57;95720.84;;;6.23;100.00
20105;BME280;10212;42.714;23.310;2023-02-28T18:15:58;95715.81;;;6.30;100.00
20105;BME280;10212;42.714;23.310;2023-02-28T18:25:58;95736.72;;;6.29;100.00
20105;BME280;10212;42.714;23.310;2023-02-28T18:35:59;95741.72;;;6.22;100.00
20105;BME280;10212;42.714;23.310;2023-02-28T18:46:04;95746.88;;;6.13;100.00
20105;BME280;10212;42.714;23.310;2023-02-28T18:56:06;95754.81;;;6.12;100.00
20105;BME280;10212;42.714;23.310;2023-02-28T19:06:07;95755.44;;;6.06;100.00
20105;BME280;10212;42.714;23.310;2023-02-28T19:16:10;95766.06;;;6.02;100.00
20105;BME280;10212;42.714;23.310;2023-02-28T19:26:14;95751.81;;;5.98;100.00
20105;BME280;10212;42.714;23.310;2023-02-28T19:36:15;95756.84;;;6.00;100.00
20105;BME280;10212;42.714;23.310;2023-02-28T19:46:16;95752.78;;;5.89;100.00
20105;BME280;10212;42.714;23.310;2023-02-28T19:56:18;95752.41;;;5.84;100.00
20105;BME280;10212;42.714;23.310;2023-02-28T20:06:18;95744.00;;;5.82;100.00
20105;BME280;10212;42.714;23.310;2023-02-28T20:16:19;95742.69;;;5.77;100.00
20105;BME280;10212;42.714;23.310;2023-02-28T20:26:20;95755.13;;;5.74;100.00
20105;BME280;10212;42.714;23.310;2023-02-28T20:36:20;95750.78;;;5.74;100.00
20105;BME280;10212;42.714;23.310;2023-02-28T20:46:26;95749.78;;;5.75;100.00
20105;BME280;10212;42.714;23.310;2023-02-28T20:56:26;95752.38;;;5.75;100.00
20105;BME280;10212;42.714;23.310;2023-02-28T21:06:30;95751.72;;;5.73;100.00
20105;BME280;10212;42.714;23.310;2023-02-28T21:16:32;95756.63;;;5.76;100.00
20105;BME280;10212;42.714;23.310;2023-02-28T21:26:33;95762.13;;;5.82;100.00
20105;BME280;10212;42.714;23.310;2023-02-28T21:36:39;95760.50;;;5.81;100.00
20105;BME280;10212;42.714;23.310;2023-02-28T21:46:40;95753.06;;;5.86;100.00
20105;BME280;10212;42.714;23.310;2023-02-28T21:56:40;95749.97;;;5.82;100.00
20105;BME280;10212;42.714;23.310;2023-02-28T22:06:43;95759.66;;;5.72;100.00
20105;BME280;10212;42.714;23.310;2023-02-28T22:16:44;95754.94;;;5.67;100.00
20105;BME280;10212;42.714;23.310;2023-02-28T22:26:44;95764.25;;;5.51;100.00
20105;BME280;10212;42.714;23.310;2023-02-28T22:36:45;95753.09;;;5.24;100.00
20105;BME280;10212;42.714;23.310;2023-02-28T22:46:45;95750.19;;;5.19;100.00
20105;BME280;10212;42.714;23.310;2023-02-28T22:56:51;95748.06;;;5.14;100.00
20105;BME280;10212;42.714;23.310;2023-02-28T23:06:51;95750.47;;;5.16;100.00
20105;BME280;10212;42.714;23.310;2023-02-28T23:16:53;95733.41;;;5.23;100.00
20105;BME280;10212;42.714;23.310;2023-02-28T23:26:55;95721.25;;;5.24;100.00
20105;BME280;10212;42.714;23.310;2023-02-28T23:36:59;95702.78;;;5.10;100.00
20105;BME280;10212;42.714;23.310;2023-02-28T23:46:59;95687.25;;;5.10;100.00
20105;BME280;10212;42.714;23.310;2023-02-28T23:57:00;95677.44;;;5.14;100.00
